Date,TemperatureHighF,TemperatureAvgF,TemperatureLowF,DewpointHighF,DewpointAvgF,DewpointLowF,HumidityHigh,HumidityAvg,HumidityLow,PressureMaxIn,PressureMinIn,WindSpeedMaxMPH,WindSpeedAvgMPH,GustSpeedMaxMPH,PrecipitationSumIn
2013-1-1,35,33,31,33,29,23,91,86,63,30.06,29.91,6,0,6,0.04
2013-1-2,36,28,23,29,24,18,91,84,69,30.13,29.96,5,0,5,0.00
2013-1-3,52,28,19,32,21,16,88,75,42,30.21,30.09,9,1,10,0.00
2013-1-4,39,27,22,27,20,17,80,74,58,30.27,30.19,15,3,16,0.00
2013-1-5,57,32,17,32,22,13,86,69,39,30.34,30.14,9,0,9,0.00
2013-1-6,38,35,32,29,27,24,78,72,66,30.18,30.02,11,3,11,0.00
2013-1-7,64,36,26,36,24,20,77,64,32,30.38,30.18,36,4,36,0.00
2013-1-8,66,39,25,34,24,19,81,59,27,30.34,30.24,7,0,7,0.00
2013-1-9,48,41,33,44,36,24,91,80,65,30.45,30.26,8,0,8,0.00
2013-1-10,62,44,32,51,34,29,93,73,39,30.49,30.26,8,1,8,0.00
2013-1-11,63,52,44,53,45,35,89,78,62,30.26,30.04,18,2,19,0.00
2013-1-12,86,56,46,63,51,43,92,83,44,30.15,30.08,12,1,12,0.00
2013-1-13,78,58,55,57,53,40,89,85,49,30.11,30.04,10,5,11,0.00
2013-1-14,56,42,34,54,40,32,92,91,89,30.28,30.02,9,2,9,0.00
2013-1-15,41,37,33,39,34,31,93,92,91,30.23,29.95,5,1,5,0.00
2013-1-16,52,41,35,49,38,33,94,92,88,30.03,29.88,9,1,9,0.00
2013-1-17,36,32,28,34,29,25,92,88,82,30.19,29.99,7,0,7,0.00
2013-1-18,56,32,22,30,23,19,90,71,32,30.40,30.19,10,1,10,0.00
2013-1-19,61,40,23,34,23,18,83,53,29,30.31,30.02,16,3,17,0.00
2013-1-20,61,40,27,34,24,14,72,53,33,30.06,30.00,16,3,17,0.00
2013-1-21,50,29,19,27,13,4,80,53,28,30.05,29.87,22,5,22,0.00
2013-1-22,35,17,9,9,0,-4,62,48,31,30.16,29.98,16,5,17,0.00
2013-1-23,26,18,8,15,4,-3,64,54,35,30.20,29.94,15,3,15,0.00
2013-1-24,36,20,10,18,9,2,75,63,44,30.37,29.93,20,4,20,0.00
2013-1-25,29,21,11,26,14,4,88,74,58,30.32,29.93,8,1,8,0.00
2013-1-26,29,25,23,25,20,18,87,83,77,30.32,30.03,10,1,10,0.00
2013-1-27,51,32,16,29,21,12,84,66,42,30.37,30.26,8,1,8,0.00
2013-1-28,60,46,32,48,39,24,91,80,59,30.26,30.13,15,4,15,0.00
2013-1-29,79,57,48,57,48,45,91,75,45,30.16,29.92,15,2,16,0.00
2013-1-30,66,56,43,56,50,39,92,83,69,29.92,29.41,20,4,20,0.00
2013-1-31,42,29,26,39,22,17,89,74,59,29.88,29.42,21,7,22,0.00
2013-2-1,35,18,5,24,8,-1,88,68,39,30.24,29.77,25,4,25,0.00
2013-2-2,32,18,5,23,13,-1,87,79,46,30.21,29.93,10,1,10,0.00
2013-2-3,31,25,21,25,21,16,88,82,75,30.01,29.81,18,4,19,0.00
2013-2-4,44,30,16,29,20,11,82,68,45,30.03,29.84,14,3,15,0.00
2013-2-5,47,39,35,36,30,26,81,72,64,29.92,29.83,14,3,15,0.00
2013-2-6,65,40,28,39,29,22,82,66,37,30.20,29.92,14,2,15,0.00
2013-2-7,48,38,28,36,30,23,83,72,60,30.20,29.96,13,2,13,0.00
2013-2-8,48,35,29,42,30,23,90,83,73,30.14,29.86,15,3,15,0.00
2013-2-9,63,36,23,32,21,15,80,59,27,30.27,30.14,10,2,11,0.00
2013-2-10,65,42,24,36,23,15,81,51,27,30.26,30.00,14,3,14,0.00
2013-2-11,61,50,39,50,38,20,84,64,36,30.01,29.86,21,6,21,0.00
2013-2-12,71,43,31,37,25,21,70,50,25,30.09,29.90,14,3,15,0.00
2013-2-13,41,36,30,36,29,23,88,77,59,29.90,29.57,12,2,12,0.00
2013-2-14,59,38,27,35,27,23,89,67,38,29.98,29.85,12,2,12,0.00
2013-2-15,54,35,26,43,28,22,88,78,52,30.02,29.93,12,1,12,0.00
2013-2-16,36,26,19,27,21,14,87,80,63,29.98,29.86,9,0,9,0.00
2013-2-17,36,19,9,18,9,3,82,67,42,30.14,29.89,16,2,17,0.00
2013-2-18,62,33,7,37,19,2,80,59,37,30.22,29.95,16,2,16,0.00
2013-2-19,53,38,28,40,27,14,87,64,41,29.97,29.78,24,6,25,0.00
2013-2-20,46,28,20,23,14,10,66,57,36,30.13,29.95,16,4,17,0.00
2013-2-21,58,31,13,30,16,7,78,57,32,30.19,30.06,7,1,7,0.00
2013-2-22,51,37,31,41,31,18,87,78,45,30.13,29.97,13,3,13,0.00
2013-2-23,70,46,35,49,36,31,89,72,37,29.99,29.81,12,1,12,0.00
2013-2-24,55,39,26,32,25,18,83,60,34,30.05,29.84,15,3,16,0.00
2013-2-25,61,35,20,33,23,16,84,63,33,30.08,29.95,8,1,8,0.00
2013-2-26,45,35,31,38,27,20,87,73,60,29.98,29.53,24,6,24,0.00
2013-2-28,30,29,29,26,25,24,89,86,81,29.83,29.73,14,6,14,0.00
2013-3-1,37,30,27,29,26,23,90,84,72,29.89,29.80,13,2,13,0.00
2013-3-2,32,26,22,24,20,17,84,79,66,29.91,29.84,9,2,9,0.00
2013-3-3,31,22,20,23,17,15,84,80,68,29.96,29.88,10,1,10,0.00
2013-3-4,54,32,19,28,18,12,84,59,31,30.08,29.95,14,2,14,0.00
2013-3-5,48,36,29,40,31,20,90,82,66,30.01,29.57,18,2,18,0.00
2013-3-6,32,28,25,29,24,21,89,85,78,30.09,29.63,17,4,17,0.00
2013-3-7,33,29,27,29,26,24,90,88,82,30.23,30.08,10,3,10,0.00
2013-3-8,55,36,26,36,26,20,87,71,44,30.31,30.19,10,2,10,0.00
2013-3-9,71,44,21,39,28,18,86,58,28,30.30,30.16,8,1,8,0.00
2013-3-10,76,55,43,43,33,28,55,45,30,30.18,30.06,10,3,10,0.00
2013-3-11,58,51,48,45,40,32,88,65,49,30.08,29.80,15,3,16,0.00
2013-3-12,52,39,29,44,33,24,89,81,55,30.00,29.80,11,2,11,0.00
2013-3-13,41,30,23,30,24,17,86,78,61,30.13,29.95,36,4,36,0.00
2013-3-14,49,32,21,27,18,14,83,61,36,30.21,30.11,15,4,16,0.00
2013-3-15,60,42,24,37,26,14,70,55,42,30.14,29.87,17,3,18,0.00
2013-3-16,75,54,38,53,43,30,88,67,41,29.92,29.68,20,4,20,0.00
2013-3-17,48,42,38,42,38,35,88,85,79,30.05,29.90,8,1,9,0.00
2013-3-18,42,37,34,38,33,30,89,85,74,30.00,29.78,14,3,14,0.00
2013-3-19,56,43,34,42,26,9,91,57,21,30.02,29.77,24,7,24,0.00
2013-3-20,54,37,25,24,16,10,78,45,26,30.03,29.78,19,4,20,0.00
2013-3-21,36,23,15,24,15,9,79,72,53,29.93,29.79,11,2,11,0.00
2013-3-22,54,29,10,29,15,5,83,59,31,29.99,29.90,11,2,11,0.00
2013-3-23,65,38,24,32,22,16,74,55,28,29.99,29.85,7,0,7,0.00
2013-3-24,38,33,29,30,26,19,89,74,50,29.89,29.44,17,2,18,0.00
2013-3-25,37,30,28,29,26,24,90,84,67,29.79,29.46,0,0,0,0.00
2013-3-26,44,32,28,33,26,24,88,82,59,30.10,29.79,15,5,15,0.00
2013-3-27,43,31,27,32,25,22,87,80,59,30.19,30.08,13,4,13,0.00
2013-3-28,50,36,26,31,26,20,88,68,45,30.24,30.16,15,2,15,0.00
2013-3-29,62,40,23,36,26,20,86,62,35,30.26,30.14,36,4,36,0.00
2013-3-30,72,47,28,41,30,20,85,56,27,30.21,30.01,12,1,12,0.00
2013-3-31,55,47,43,48,41,30,90,79,57,30.01,29.81,13,2,13,0.00
2013-4-1,52,41,32,46,35,25,91,80,63,30.01,29.84,14,3,15,0.00
2013-4-2,55,38,28,26,21,14,74,53,29,30.14,30.01,16,2,17,0.00
2013-4-3,59,38,22,29,19,12,77,48,26,30.27,30.14,14,2,15,0.00
2013-4-4,46,35,27,31,21,12,86,60,36,30.26,29.96,9,2,9,0.00
2013-4-5,68,47,34,43,34,26,90,66,34,30.06,29.92,12,2,12,0.00
2013-4-6,77,51,29,39,32,24,84,53,23,30.19,30.07,10,2,10,0.00
2013-4-7,77,58,44,46,38,30,64,48,32,30.11,30.02,28,3,28,0.00
2013-4-8,80,62,46,52,44,37,76,54,35,30.11,30.01,16,3,17,0.00
2013-4-9,85,65,47,58,48,41,82,57,35,30.18,30.06,13,2,13,0.00
2013-4-10,92,69,50,61,50,42,81,54,28,30.11,29.94,13,3,14,0.00
2013-4-11,88,69,52,60,51,45,81,56,26,29.96,29.72,11,2,11,0.00
2013-4-12,68,58,46,57,48,33,91,71,39,29.90,29.63,15,4,16,0.00
2013-4-13,69,54,42,40,35,28,72,50,31,30.03,29.89,36,5,36,0.00
2013-4-14,82,59,35,46,37,27,78,47,23,30.10,29.97,11,2,11,0.00
2013-4-15,64,54,49,52,48,44,89,81,63,30.16,30.03,14,2,14,0.00
2013-4-16,90,67,53,63,54,49,88,66,37,30.25,30.12,12,2,12,0.00
2013-4-17,79,62,56,62,56,52,92,81,56,30.27,30.11,8,1,9,0.00
2013-4-18,81,68,57,62,55,52,83,65,44,30.12,29.92,36,3,36,0.00
2013-4-19,69,57,38,61,50,34,88,78,66,29.95,29.68,36,7,36,0.00
2013-4-20,61,44,33,35,30,24,85,59,32,30.30,29.95,36,10,36,0.00
2013-4-21,71,48,29,39,31,22,82,54,29,30.42,30.29,36,3,36,0.00
2013-4-22,72,52,37,41,32,24,71,49,28,30.37,30.21,36,3,36,0.00
2013-4-23,80,58,39,46,36,24,70,47,27,30.23,30.03,12,1,12,0.00
2013-4-24,77,58,40,55,46,36,86,65,41,30.18,29.92,21,4,21,0.00
2013-4-25,69,48,32,41,32,26,86,58,27,30.32,30.18,15,2,16,0.00
2013-4-26,75,52,31,43,34,26,82,53,29,30.40,30.29,10,1,10,0.00
2013-4-27,69,54,42,46,40,32,79,61,41,30.34,30.17,8,1,8,0.00
2013-4-28,62,54,49,51,47,45,90,79,65,30.18,29.98,13,2,13,0.00
2013-4-29,71,57,49,57,50,45,88,77,57,30.05,29.98,9,1,9,0.00
2013-4-30,86,63,44,61,51,41,92,69,40,30.19,30.02,12,1,12,0.00
2013-5-1,79,63,53,56,50,43,82,64,43,30.30,30.18,18,2,19,0.00
2013-5-2,59,56,53,49,46,45,76,70,64,30.29,30.22,8,2,8,0.00
2013-5-3,70,57,47,47,42,38,79,59,35,30.24,30.12,13,2,13,0.00
2013-5-4,74,56,44,48,40,35,73,57,32,30.12,30.03,10,3,11,0.00
2013-5-5,65,54,47,46,39,24,80,59,29,30.08,29.94,13,3,13,0.00
2013-5-6,58,53,50,54,48,45,91,86,79,29.96,29.90,10,1,10,0.00
2013-5-7,63,52,47,56,49,45,94,90,78,29.99,29.90,2,0,2,0.00
2013-5-8,68,54,49,57,50,46,93,87,66,30.04,29.90,0,0,0,0.00
2013-5-9,79,62,48,57,52,45,93,73,45,30.10,30.00,0,0,0,0.00
2013-5-10,77,63,52,59,54,48,90,76,49,30.10,29.95,12,0,12,0.00
2013-5-11,71,60,53,60,54,48,92,82,65,29.96,29.86,0,0,0,0.00
2013-5-12,60,49,41,48,37,30,86,64,41,30.09,29.90,0,0,0,0.00
2013-5-13,57,45,34,36,32,30,85,63,41,30.17,30.06,36,3,36,0.00
2013-5-14,75,53,31,48,37,27,87,59,33,30.20,29.99,11,2,11,0.00
2013-5-15,86,70,55,59,53,45,77,58,36,30.07,29.95,14,3,15,0.00
2013-5-16,77,65,57,59,54,48,90,68,52,30.09,29.99,11,2,11,0.00
2013-5-17,81,65,54,65,57,52,93,77,51,30.15,30.06,0,0,0,0.00
2013-5-18,78,67,60,63,59,56,89,77,56,30.15,30.07,0,0,0,0.00
2013-5-19,77,65,61,66,60,57,91,84,67,30.13,30.04,0,0,0,0.00
2013-5-20,71,64,59,66,60,56,92,89,81,30.15,30.06,0,0,0,0.00
2013-5-21,85,68,55,68,61,53,94,78,51,30.10,29.96,0,0,0,0.00
2013-5-22,81,65,56,66,59,54,92,83,57,30.04,29.93,0,0,0,0.00
2013-5-23,79,64,57,62,58,54,93,81,51,29.97,29.88,0,0,0,0.00
2013-5-24,57,50,43,54,43,36,91,78,55,30.24,29.94,0,0,0,0.00
2013-5-25,62,48,35,41,36,31,87,66,42,30.32,30.23,0,0,0,0.00
2013-5-26,71,54,41,49,42,36,86,66,43,30.29,30.22,0,0,0,0.00
2013-5-27,77,60,47,60,50,40,82,69,54,30.27,30.13,0,0,0,0.00
2013-5-28,82,70,57,62,57,52,87,66,43,30.22,30.11,0,0,0,0.00
2013-5-29,86,70,57,62,58,54,89,68,43,30.25,30.15,0,0,0,0.00
2013-5-30,89,72,58,63,58,54,88,64,35,30.29,30.16,2,0,2,0.00
2013-5-31,85,71,56,64,59,52,87,67,46,30.23,30.10,2,0,2,0.00
2013-6-1,86,74,64,66,61,57,81,64,48,30.14,30.00,36,1,36,0.00
2013-6-2,72,68,62,65,61,58,91,77,64,30.02,29.94,5,0,5,0.00
2013-6-3,75,65,58,64,60,53,93,84,61,30.07,29.94,0,0,0,0.00
2013-6-4,80,64,55,61,56,52,91,75,52,30.14,30.06,0,0,0,0.00
2013-6-5,79,67,56,66,59,52,89,77,62,30.13,30.00,0,0,0,0.00
2013-6-6,76,66,61,68,61,56,91,84,73,30.05,29.84,0,0,0,0.00
2013-6-7,66,63,59,63,61,56,93,92,90,29.92,29.79,0,0,0,0.00
2013-6-8,81,65,56,62,58,54,93,78,52,30.15,29.91,0,0,0,0.00
2013-6-9,86,69,57,65,59,54,91,74,46,30.20,30.07,0,0,0,0.00
2013-6-10,74,65,61,66,62,58,93,88,68,30.08,29.93,0,0,0,0.00
2013-6-11,77,66,60,65,61,58,94,85,67,30.06,29.94,0,0,0,0.00
2013-6-12,88,72,61,73,66,58,92,82,59,30.06,29.94,0,0,0,0.00
2013-6-13,74,68,58,70,64,55,93,88,82,29.96,29.75,8,0,8,0.00
2013-6-14,73,61,53,60,55,50,93,81,62,30.11,29.90,5,0,5,0.00
2013-6-15,80,64,50,60,54,48,92,74,49,30.18,30.10,6,0,6,0.00
2013-6-16,79,66,56,66,60,52,92,80,59,30.13,30.06,32,2,32,0.00
2013-6-17,83,69,59,69,63,55,94,82,60,30.09,29.98,12,0,12,0.00
2013-6-18,72,62,59,66,60,56,94,91,79,30.03,29.92,0,0,0,0.00
2013-6-19,79,65,56,67,60,54,95,83,61,30.17,30.01,0,0,0,0.00
2013-6-20,80,68,55,67,60,53,92,79,59,30.26,30.17,0,0,0,0.00
2013-6-21,84,71,60,68,62,57,91,76,57,30.29,30.21,0,0,0,0.00
2013-6-22,86,71,59,67,61,55,88,71,51,30.30,30.17,0,0,0,0.00
2013-6-23,87,72,61,66,62,57,90,72,45,30.26,30.16,0,0,0,0.00
2013-6-24,84,72,62,69,64,59,90,77,55,30.26,30.14,0,0,0,0.00
2013-6-25,85,72,63,71,66,60,92,81,59,30.20,30.06,0,0,0,0.00
2013-6-26,81,72,65,70,66,62,91,82,65,30.08,29.95,0,0,0,0.00
2013-6-27,71,68,63,68,64,60,93,88,78,29.96,29.81,0,0,0,0.00
2013-6-28,82,73,64,69,65,60,94,78,53,29.85,29.67,0,0,0,0.00
2013-6-29,80,68,59,65,60,56,94,78,55,29.80,29.70,0,0,0,0.00
2013-6-30,85,71,59,66,61,56,91,74,50,29.89,29.78,2,0,2,0.00
2013-7-1,80,70,64,70,64,60,92,81,65,30.02,29.88,4,0,4,0.00
2013-7-2,79,68,64,69,64,61,93,87,71,30.16,29.99,35,2,35,0.00
2013-7-3,76,67,64,69,64,62,94,90,76,30.25,30.16,36,5,36,0.00
2013-7-4,83,72,65,71,66,62,94,83,67,30.28,30.19,36,6,36,0.00
2013-7-5,82,71,66,72,66,62,92,84,65,30.26,30.19,24,1,25,0.00
2013-7-6,86,73,63,71,66,61,94,79,54,30.26,30.15,34,3,35,0.00
2013-7-7,73,67,64,69,64,61,93,90,84,30.23,30.14,36,1,36,0.00
2013-7-8,81,70,62,68,64,60,94,82,60,30.24,30.17,4,0,4,0.00
2013-7-9,86,74,65,70,66,62,93,79,56,30.22,30.13,5,0,5,0.00
2013-7-10,82,72,66,74,68,64,93,89,72,30.16,30.01,23,1,24,0.00
2013-7-11,80,69,64,70,65,62,95,88,70,30.05,29.98,25,0,25,0.00
2013-7-12,76,66,60,67,62,57,93,87,70,30.12,29.99,29,1,29,0.00
2013-7-13,76,67,57,67,62,55,95,85,73,30.22,30.09,30,1,30,0.00
2013-7-14,82,74,68,70,66,64,91,79,62,30.35,30.21,6,0,6,0.00
2013-7-15,90,75,65,70,66,62,92,75,47,30.40,30.32,6,0,6,0.00
2013-7-16,88,75,63,72,67,60,92,77,56,30.40,30.32,0,0,0,0.00
2013-7-17,87,75,67,74,69,64,92,82,66,30.37,30.24,0,0,0,0.00
2013-7-18,89,76,68,76,71,66,94,84,63,30.28,30.16,0,0,0,0.00
2013-7-19,86,75,67,74,69,65,93,83,67,30.18,30.04,0,0,0,0.00
2013-7-20,86,74,67,72,68,64,92,81,59,30.08,29.98,0,0,0,0.00
2013-7-21,80,70,64,72,67,62,93,89,72,30.08,30.00,0,0,0,0.00
2013-7-22,78,71,67,72,67,65,95,89,78,30.04,29.89,0,0,0,0.00
2013-7-23,82,72,67,71,66,65,95,85,64,29.94,29.85,0,0,0,0.00
2013-7-24,78,68,61,69,63,58,93,85,66,30.00,29.86,0,0,0,0.00
2013-7-25,76,66,58,61,58,54,91,78,58,30.14,29.99,0,0,0,0.00
2013-7-26,82,66,51,64,58,48,91,76,50,30.14,30.07,0,0,0,0.00
2013-7-27,77,66,63,68,63,60,93,89,72,30.08,29.95,0,0,0,0.00
2013-7-28,76,67,60,64,61,55,93,81,62,30.12,29.95,0,0,0,0.00
2013-7-29,75,62,52,58,54,49,93,76,53,30.27,30.12,0,0,0,0.00
2013-7-30,80,65,50,61,56,48,91,74,46,30.29,30.20,0,0,0,0.00
2013-7-31,65,63,61,62,60,58,94,91,86,30.21,30.05,0,0,0,0.00
2013-8-1,79,68,63,68,63,60,95,86,68,30.05,29.98,0,0,0,0.00
2013-8-2,78,67,58,64,60,56,94,80,57,30.11,30.03,0,0,0,0.00
2013-8-3,79,68,59,66,61,56,92,81,58,30.10,30.03,0,0,0,0.00
2013-8-4,76,67,59,64,60,55,92,81,63,30.15,30.05,0,0,0,0.00
2013-8-5,79,65,53,64,57,51,92,77,58,30.15,30.06,0,0,0,0.00
2013-8-6,82,69,59,67,61,55,91,79,59,30.08,30.03,0,0,0,0.00
2013-8-7,78,69,65,70,66,62,94,89,77,30.10,30.06,0,0,0,0.00
2013-8-8,76,70,66,71,68,64,95,91,83,30.10,30.04,0,0,0,0.00
2013-8-9,82,74,68,72,69,66,94,85,69,30.13,30.04,0,0,0,0.00
2013-8-10,80,72,67,71,68,65,95,88,74,30.17,30.11,0,0,0,0.00
2013-8-11,80,71,67,72,68,64,95,91,72,30.19,30.11,0,0,0,0.00
2013-8-12,80,71,66,71,67,64,95,88,68,30.16,30.02,0,0,0,0.00
2013-8-13,74,68,65,68,65,61,95,90,75,30.03,29.93,0,0,0,0.00
2013-8-14,70,61,52,61,53,48,89,77,58,30.17,30.00,0,0,0,0.00
2013-8-15,75,59,45,60,52,42,92,77,58,30.19,30.10,0,0,0,0.00
2013-8-16,78,64,52,61,55,49,89,74,53,30.20,30.13,0,0,0,0.00
2013-8-17,71,63,55,59,56,52,88,80,64,30.25,30.19,0,0,0,0.00
2013-8-18,71,64,61,65,60,57,92,87,80,30.26,30.18,0,0,0,0.00
2013-8-19,73,66,63,69,64,61,95,91,83,30.21,30.14,0,0,0,0.00
2013-8-20,86,74,59,70,66,56,95,78,57,30.25,30.17,0,0,0,0.00
2013-8-21,80,70,64,70,66,61,94,86,69,30.28,30.16,0,0,0,0.00
2013-8-22,80,69,59,70,64,57,95,86,69,30.22,30.11,0,0,0,0.00
2013-8-23,79,69,63,69,64,60,94,86,69,30.19,30.08,0,0,0,0.00
2013-8-24,81,67,56,66,58,54,93,75,47,30.34,30.18,0,0,0,0.00
2013-8-25,73,58,53,61,54,50,91,85,63,30.43,30.34,0,0,0,0.00
2013-8-27,80,73,67,70,67,60,91,81,64,30.41,30.08,0,0,0,0.00
2013-8-28,84,73,67,72,68,64,94,86,65,30.11,29.97,0,0,0,0.00
2013-8-29,86,74,68,73,68,64,94,84,62,30.09,29.99,0,0,0,0.00
2013-8-30,88,74,65,72,66,62,91,78,55,30.09,29.99,0,0,0,0.00
2013-8-31,83,70,63,73,65,60,92,85,70,30.02,29.93,0,0,0,0.00
2013-9-1,78,68,62,71,64,60,93,88,76,29.97,29.90,0,0,0,0.00
2013-9-2,84,72,64,71,67,62,95,85,62,29.98,29.91,0,0,0,0.00
2013-9-3,81,70,59,67,63,55,93,80,56,30.10,29.92,0,0,0,0.00
2013-9-4,83,65,52,62,56,50,92,76,47,30.19,30.09,0,0,0,0.00
2013-9-5,83,65,51,64,57,49,92,77,51,30.22,30.17,0,0,0,0.00
2013-9-6,86,66,56,65,56,52,93,74,40,30.24,30.15,0,0,0,0.00
2013-9-7,86,65,50,61,54,46,91,70,41,30.17,30.06,0,0,0,0.00
2013-9-8,82,68,56,68,60,52,89,79,60,30.11,30.03,0,0,0,0.00
2013-9-9,86,71,60,71,64,57,92,80,59,30.19,30.10,0,0,0,0.00
2013-9-10,92,74,64,72,66,61,91,77,51,30.28,30.19,0,0,0,0.00
2013-9-11,83,69,64,73,65,61,93,89,70,30.28,30.16,0,0,0,0.00
2013-9-12,82,68,63,72,65,61,94,88,64,30.16,29.94,0,0,0,0.00
2013-9-13,75,62,50,61,55,45,94,79,52,30.04,29.90,0,0,0,0.00
2013-9-14,80,56,46,56,47,43,91,74,41,30.16,30.04,0,0,0,0.00
2013-9-15,78,60,45,60,52,42,89,76,52,30.22,30.14,0,0,0,0.00
2013-9-16,67,58,51,61,54,48,92,86,78,30.28,30.15,0,0,0,0.00
2013-9-17,82,58,44,58,49,41,93,76,42,30.34,30.25,0,0,0,0.00
2013-9-18,71,59,51,59,53,47,90,80,63,30.26,30.17,0,0,0,0.00
2013-9-19,69,63,60,64,60,57,92,89,82,30.20,30.11,0,0,0,0.00
2013-9-20,88,69,63,73,64,61,94,86,57,30.12,29.96,0,0,0,0.00
2013-9-21,66,62,57,63,60,54,93,91,87,29.98,29.81,0,0,0,0.00
2013-9-22,76,59,51,61,53,46,94,82,54,30.02,29.86,0,0,0,0.00
2013-9-23,89,57,45,64,49,43,92,76,39,30.09,30.01,0,0,0,0.00
2013-9-24,93,60,45,67,52,42,91,76,41,30.10,29.97,0,0,0,0.00
2013-9-25,67,59,52,60,55,49,92,87,77,29.99,29.93,0,0,0,0.00
2013-9-26,89,64,54,66,56,50,93,78,46,30.11,29.95,0,0,0,0.00
2013-9-27,89,62,47,62,52,44,92,74,39,30.20,30.11,0,0,0,0.00
2013-9-28,80,61,51,60,52,47,89,73,48,30.26,30.18,0,0,0,0.00
2013-9-29,80,59,49,60,52,45,88,77,50,30.19,30.07,0,0,0,0.00
2013-9-30,83,62,55,64,56,52,92,82,51,30.11,30.04,0,0,0,0.00
2013-10-1,81,62,50,64,54,48,93,79,48,30.19,30.09,0,0,0,0.00
2013-10-2,85,62,50,67,55,47,92,79,52,30.21,30.13,0,0,0,0.00
2013-10-3,86,65,54,68,58,51,92,79,52,30.19,30.11,0,0,0,0.00
2013-10-4,84,65,54,68,59,52,92,82,59,30.22,30.14,0,0,0,0.00
2013-10-5,88,67,55,69,60,52,93,79,51,30.20,30.09,0,0,0,0.00
2013-10-6,88,70,59,67,60,55,91,72,45,30.09,29.90,0,0,0,0.00
2013-10-7,74,58,46,59,51,41,91,77,51,30.14,29.85,0,0,0,0.00
2013-10-8,78,53,38,55,43,35,90,71,40,30.24,30.12,0,0,0,0.00
2013-10-9,80,56,44,52,42,38,84,63,31,30.27,30.19,0,0,0,0.00
2013-10-10,81,57,43,62,48,37,88,73,46,30.19,30.06,0,0,0,0.00
2013-10-11,69,58,51,58,52,47,90,82,66,30.08,30.01,0,0,0,0.00
2013-10-12,71,60,54,62,56,51,92,87,71,30.16,30.04,0,0,0,0.00
2013-10-13,72,62,58,62,58,56,93,87,69,30.27,30.15,0,0,0,0.00
2013-10-14,74,62,55,62,57,53,93,84,65,30.29,30.19,0,0,0,0.00
2013-10-15,76,61,52,56,52,49,90,73,49,30.23,30.07,0,0,0,0.00
2013-10-16,67,59,53,56,52,47,87,77,66,30.08,29.99,0,0,0,0.00
2013-10-17,66,58,47,61,54,45,91,89,85,30.01,29.82,0,0,0,0.00
2013-10-18,78,52,42,52,44,38,92,76,38,30.08,29.99,0,0,0,0.00
2013-10-19,62,48,40,50,42,37,90,83,60,30.01,29.85,0,0,0,0.00
2013-10-20,77,47,32,49,36,30,91,69,33,30.10,29.99,0,0,0,0.00
2013-10-21,80,51,33,48,37,29,87,64,30,30.11,29.96,0,0,0,0.00
2013-10-22,49,46,42,44,40,35,90,82,70,29.98,29.85,0,0,0,0.00
2013-10-23,47,40,34,42,37,31,90,88,76,30.00,29.73,0,0,0,0.00
2013-10-24,42,35,32,33,30,28,89,83,64,30.15,29.99,0,0,0,0.00
2013-10-25,43,34,27,35,29,23,89,81,63,30.34,30.15,0,0,0,0.00
2013-10-26,66,39,22,36,26,19,89,65,30,30.29,30.00,0,0,0,0.00
2013-10-27,70,48,37,43,35,30,80,63,36,30.11,30.01,0,0,0,0.00
2013-10-28,57,45,34,48,41,30,90,84,72,30.26,30.11,0,0,0,0.00
2013-10-29,68,56,50,56,49,47,93,80,59,30.33,30.25,0,0,0,0.00
2013-10-30,62,55,51,59,52,47,94,90,83,30.26,30.16,0,0,0,0.00
2013-10-31,67,59,53,60,53,51,95,83,63,30.16,29.70,0,0,0,0.00
2013-11-1,79,61,48,57,51,42,92,72,37,29.80,29.66,0,0,0,0.00
2013-11-2,70,49,40,48,38,32,90,70,35,30.01,29.77,0,0,0,0.00
2013-11-3,53,41,31,42,34,27,86,76,58,30.33,30.01,0,0,0,0.00
2013-11-4,64,43,29,38,30,25,87,63,38,30.43,30.33,0,0,0,0.00
2013-11-5,60,46,37,41,32,26,81,60,38,30.46,30.35,0,0,0,0.00
2013-11-6,86,57,44,58,47,40,90,71,37,30.36,30.05,0,0,0,0.00
2013-11-7,57,46,32,50,39,25,90,79,56,30.16,29.98,0,0,0,0.00
2013-11-8,62,38,27,36,26,20,84,66,34,30.28,30.15,0,0,0,0.00
2013-11-9,73,44,26,35,26,21,84,55,21,30.26,30.11,0,0,0,0.00
2013-11-10,69,46,28,38,29,19,73,53,29,30.29,30.13,0,0,0,0.00
2013-11-11,79,44,25,35,24,20,84,52,16,30.28,30.08,0,0,0,0.00
2013-11-12,49,32,22,34,24,17,82,73,43,30.42,30.05,0,0,0,0.00
2013-11-13,41,25,18,26,18,13,83,76,47,30.47,30.40,0,0,0,0.00
2013-11-16,61,52,49,50,46,45,87,82,67,30.15,30.12,0,0,0,0.00
2013-11-17,76,57,50,58,51,45,90,81,51,30.13,29.78,0,0,0,0.00
2013-11-18,68,50,39,52,37,27,89,62,33,30.06,29.88,0,0,0,0.00
2013-11-19,58,37,28,36,25,20,78,64,41,30.25,30.06,0,0,0,0.00
2013-11-20,60,39,28,33,25,22,80,59,32,30.34,30.22,0,0,0,0.00
2013-11-21,66,46,33,47,36,24,79,68,49,30.39,30.28,0,0,0,0.00
2013-11-22,59,52,45,53,48,42,92,87,78,30.28,30.12,0,0,0,0.00
2013-11-23,55,37,24,42,30,15,92,76,48,30.25,30.14,0,0,0,0.00
2013-11-24,43,23,14,18,9,3,73,57,33,30.42,30.24,0,0,0,0.00
2013-11-25,60,30,13,26,15,6,80,57,25,30.41,30.20,0,0,0,0.00
2013-11-26,42,37,30,40,33,24,91,87,78,30.20,29.70,0,0,0,0.00
2013-11-27,33,25,19,31,22,14,91,87,81,30.13,29.71,0,0,0,0.00
2013-11-28,51,28,18,29,18,14,84,70,40,30.37,30.13,0,0,0,0.00
2013-11-29,65,32,16,38,21,12,85,69,36,30.51,30.36,0,0,0,0.00
2013-11-30,55,34,25,33,23,18,81,64,40,30.46,30.23,0,0,0,0.00
2013-12-1,59,37,23,35,27,19,83,67,40,30.23,29.98,0,0,0,0.00
2013-12-2,53,42,37,40,34,31,83,74,58,29.98,29.81,0,0,0,0.00
2013-12-3,59,45,36,47,38,32,86,77,60,29.91,29.82,0,0,0,0.00
2013-12-4,80,54,41,56,45,38,90,76,42,30.01,29.90,0,0,0,0.00
2013-12-5,63,57,46,55,51,42,91,80,73,30.03,29.93,0,0,0,0.00
2013-12-6,57,40,33,54,37,31,91,91,89,30.14,29.95,0,0,0,0.00
2013-12-7,37,30,27,35,28,24,91,90,87,30.39,29.98,0,0,0,0.00
2013-12-8,34,31,28,32,28,25,91,89,87,30.36,30.04,0,0,0,0.00
2013-12-9,46,38,34,43,36,32,93,91,87,30.11,30.01,0,0,0,0.00
2013-12-10,40,31,27,31,26,22,89,80,68,30.10,30.05,0,0,0,0.00
2013-12-11,37,33,32,35,29,26,92,84,80,30.10,29.84,0,0,0,0.00
2013-12-12,37,37,37,35,35,35,92,92,92,29.84,29.84,0,0,0,0.00